Time;durP1;ratioP1;P1;durP2;ratioP2;P2;SDS_P1;SDS_P2;PMS_P1;PMS_P2;Temp;Humidity;BMP_temperature;BMP_pressure;BME280_temperature;BME280_humidity;BME280_pressure;Samples;Min_cycle;Max_cycle;Signal;HPM_P1;HPM_P2
2020/12/24 00:02:46;;;;;;;3.70;0.90;;;;;;;12.43;66.66;97357.53;8338069;28;20670;-77
2020/12/24 00:06:47;;;;;;;1.03;0.90;;;;;;;12.38;67.10;97352.63;8337705;28;20558;-78
2020/12/24 00:10:50;;;;;;;1.10;0.77;;;;;;;12.35;66.91;97357.16;8337490;28;20205;-77
2020/12/24 00:14:52;;;;;;;1.13;0.60;;;;;;;12.39;66.76;97358.66;8336889;28;20243;-77
2020/12/24 00:18:54;;;;;;;1.03;0.57;;;;;;;12.47;66.91;97346.00;8337310;28;20204;-78
2020/12/24 00:22:55;;;;;;;5.67;0.80;;;;;;;12.40;67.04;97340.38;8336746;28;20205;-78
2020/12/24 00:26:57;;;;;;;1.80;0.90;;;;;;;12.40;66.70;97326.56;8337051;28;20243;-77
2020/12/24 00:31:00;;;;;;;1.60;1.00;;;;;;;12.40;66.57;97350.75;8336389;28;20204;-77
2020/12/24 00:35:02;;;;;;;2.37;0.70;;;;;;;12.32;66.76;97343.44;8335966;28;20228;-78
2020/12/24 00:39:04;;;;;;;2.63;0.60;;;;;;;12.31;66.85;97341.75;8335794;28;20200;-77
2020/12/24 00:43:06;;;;;;;0.80;0.70;;;;;;;12.32;66.98;97340.84;8336545;28;20212;-77
2020/12/24 00:47:09;;;;;;;0.80;0.53;;;;;;;12.29;66.42;97354.00;8336547;28;20200;-77
2020/12/24 00:51:11;;;;;;;1.13;0.70;;;;;;;12.27;66.24;97329.91;8336429;28;20204;-77
2020/12/24 00:55:13;;;;;;;0.60;0.50;;;;;;;12.31;66.22;97322.75;8335798;28;20695;-77
2020/12/24 00:59:15;;;;;;;1.00;0.60;;;;;;;12.29;66.03;97309.88;8335941;28;20207;-77
2020/12/24 01:03:18;;;;;;;1.90;0.70;;;;;;;12.36;65.73;97318.13;8335876;28;20204;-77
2020/12/24 01:07:19;;;;;;;0.90;0.70;;;;;;;12.20;65.89;97325.19;8335506;28;20204;-77
2020/12/24 01:11:26;;;;;;;2.37;0.80;;;;;;;12.24;65.47;97324.06;8335015;28;20240;-77
2020/12/24 01:15:28;;;;;;;1.23;0.70;;;;;;;12.33;65.31;97306.16;8335792;28;20227;-78
2020/12/24 01:19:30;;;;;;;1.30;0.57;;;;;;;12.28;65.08;97322.94;8335796;28;20652;-78
2020/12/24 01:23:32;;;;;;;2.10;0.70;;;;;;;12.31;64.75;97339.16;8334930;28;20212;-77
2020/12/24 01:27:34;;;;;;;2.10;0.83;;;;;;;12.25;64.00;97330.94;8334953;28;20207;-77
2020/12/24 01:31:35;;;;;;;1.60;0.60;;;;;;;12.33;64.39;97331.28;8335025;28;20200;-77
2020/12/24 01:35:38;;;;;;;2.93;0.63;;;;;;;12.33;64.25;97331.28;8334798;28;20247;-77
2020/12/24 01:39:40;;;;;;;2.00;0.60;;;;;;;12.39;64.42;97332.69;8334082;28;20204;-77
2020/12/24 01:43:41;;;;;;;2.60;0.60;;;;;;;12.43;65.13;97341.94;8334759;28;20204;-77
2020/12/24 01:47:43;;;;;;;2.30;0.80;;;;;;;12.36;65.14;97345.88;8334014;28;20588;-77
2020/12/24 01:51:50;;;;;;;1.67;0.70;;;;;;;12.35;64.65;97365.78;8334085;28;20200;-77
2020/12/24 01:55:52;;;;;;;4.73;0.93;;;;;;;12.07;64.44;97351.91;8334389;28;20216;-77
2020/12/24 01:59:56;;;;;;;1.23;0.63;;;;;;;12.01;64.36;97349.66;8333551;28;20201;-77
2020/12/24 02:03:57;;;;;;;0.97;0.50;;;;;;;11.90;64.48;97352.91;8333783;28;20213;-77
2020/12/24 02:08:00;;;;;;;3.03;0.60;;;;;;;11.92;64.61;97345.84;8333483;28;20204;-77
2020/12/24 02:12:02;;;;;;;1.20;0.60;;;;;;;12.26;62.10;97354.22;8330979;28;20442;-77
2020/12/24 02:16:04;;;;;;;2.90;0.70;;;;;;;11.91;64.37;97345.94;8332022;28;20236;-77
2020/12/24 02:20:06;;;;;;;1.97;0.70;;;;;;;11.79;64.49;97324.13;8332717;28;20207;-77
2020/12/24 02:24:09;;;;;;;1.47;0.63;;;;;;;11.93;65.07;97333.72;8333189;28;20574;-77
2020/12/24 02:28:11;;;;;;;1.03;0.50;;;;;;;11.70;64.44;97320.31;8332755;28;20204;-77
2020/12/24 02:32:12;;;;;;;2.93;0.80;;;;;;;11.87;64.51;97332.28;8332741;28;20215;-77
2020/12/24 02:36:14;;;;;;;3.03;0.70;;;;;;;11.76;64.61;97339.03;8333148;28;20220;-77
2020/12/24 02:40:17;;;;;;;2.67;0.80;;;;;;;11.74;64.38;97337.34;8335000;28;20668;-78
2020/12/24 02:44:19;;;;;;;1.53;0.70;;;;;;;11.89;64.19;97330.47;8332487;28;20204;-78
2020/12/24 02:48:20;;;;;;;1.03;0.53;;;;;;;11.82;63.19;97325.69;8333495;28;20200;-78
2020/12/24 02:52:22;;;;;;;1.60;0.70;;;;;;;11.91;63.06;97327.78;8332956;28;20208;-78
2020/12/24 02:56:25;;;;;;;2.33;0.70;;;;;;;11.88;62.50;97339.16;8332815;28;20224;-78
2020/12/24 03:00:26;;;;;;;1.63;0.67;;;;;;;11.89;63.15;97339.97;8332362;28;20208;-78
2020/12/24 03:04:28;;;;;;;1.87;0.60;;;;;;;11.84;63.10;97319.50;8332581;28;20231;-78
2020/12/24 03:08:30;;;;;;;2.03;0.80;;;;;;;11.80;63.14;97315.41;8333013;28;20203;-79
2020/12/24 03:12:32;;;;;;;1.50;0.60;;;;;;;11.83;63.79;97284.09;8332751;28;20236;-78
2020/12/24 03:16:34;;;;;;;1.13;0.50;;;;;;;11.93;63.82;97299.97;8332609;28;20676;-78
2020/12/24 03:20:36;;;;;;;1.03;0.63;;;;;;;11.91;63.75;97265.50;8333016;28;20196;-78
2020/12/24 03:24:37;;;;;;;4.30;0.97;;;;;;;11.89;63.58;97255.22;8332642;28;20200;-78
2020/12/24 03:28:40;;;;;;;0.50;0.50;;;;;;;12.01;63.39;97245.03;8332443;28;20204;-78
2020/12/24 03:32:42;;;;;;;1.80;0.90;;;;;;;12.00;63.55;97258.94;8332781;28;20197;-78
2020/12/24 03:36:43;;;;;;;2.03;0.70;;;;;;;11.89;61.27;97265.59;8332290;28;20262;-79
2020/12/24 03:40:45;;;;;;;1.17;0.60;;;;;;;11.90;61.39;97254.31;8333117;28;20197;-77
2020/12/24 03:44:48;;;;;;;2.73;0.70;;;;;;;11.88;61.00;97235.38;8332486;28;20215;-78
2020/12/24 03:48:49;;;;;;;1.77;0.80;;;;;;;11.92;61.56;97249.03;8331928;28;20236;-78
2020/12/24 03:52:51;;;;;;;1.50;0.70;;;;;;;11.83;60.22;97216.66;8330857;28;20204;-78
2020/12/24 03:56:52;;;;;;;1.60;0.60;;;;;;;11.85;59.15;97217.41;8331464;28;20232;-78
2020/12/24 04:00:55;;;;;;;1.47;0.80;;;;;;;11.91;59.67;97265.50;8331883;28;20245;-78
2020/12/24 04:04:57;;;;;;;3.23;0.70;;;;;;;11.91;59.55;97271.53;8331244;28;20204;-78
2020/12/24 04:08:58;;;;;;;0.63;0.50;;;;;;;11.86;59.71;97259.72;8331527;28;20200;-78
2020/12/24 04:13:01;;;;;;;1.90;0.60;;;;;;;11.70;60.01;97258.06;8336817;28;20572;-78
2020/12/24 04:17:03;;;;;;;2.30;0.70;;;;;;;11.55;58.41;97288.34;8338179;28;20360;-78
2020/12/24 04:21:05;;;;;;;2.10;0.67;;;;;;;11.61;57.36;97271.56;8336900;28;20201;-78
2020/12/24 04:25:07;;;;;;;2.60;1.00;;;;;;;11.57;55.00;97240.75;8338337;28;20209;-79
2020/12/24 04:29:09;;;;;;;2.40;0.90;;;;;;;11.51;54.90;97258.31;8338080;28;20201;-79
2020/12/24 04:33:12;;;;;;;3.20;1.10;;;;;;;11.33;54.46;97260.25;8338634;28;20203;-79
2020/12/24 04:37:17;;;;;;;4.40;1.20;;;;;;;11.32;53.74;97270.72;8337806;28;20211;-79
2020/12/24 04:41:18;;;;;;;4.83;1.40;;;;;;;11.12;53.19;97280.47;8337825;28;20205;-79
2020/12/24 04:45:22;;;;;;;4.80;1.50;;;;;;;11.15;53.10;97297.59;8341430;28;20208;-78
2020/12/24 04:49:25;;;;;;;5.23;1.60;;;;;;;11.16;53.43;97296.69;8339767;28;20215;-78
2020/12/24 04:53:27;;;;;;;5.03;1.80;;;;;;;11.11;52.96;97294.34;8336129;28;20204;-78
2020/12/24 04:57:29;;;;;;;6.23;1.60;;;;;;;11.03;53.27;97296.56;8336458;28;20624;-78
2020/12/24 05:01:31;;;;;;;7.97;1.70;;;;;;;11.01;53.46;97297.56;8336631;28;20215;-78
2020/12/24 05:05:34;;;;;;;4.73;1.50;;;;;;;11.01;53.83;97302.75;8336724;28;20209;-78
2020/12/24 05:09:36;;;;;;;7.50;1.60;;;;;;;11.04;53.61;97305.16;8336751;28;20247;-78
2020/12/24 05:13:38;;;;;;;5.50;1.60;;;;;;;10.87;53.53;97296.59;8335919;28;20243;-77
2020/12/24 05:17:40;;;;;;;6.10;1.70;;;;;;;10.92;53.85;97307.50;8336145;28;20647;-78
2020/12/24 05:21:42;;;;;;;6.60;1.77;;;;;;;10.90;54.15;97287.81;8335156;28;20215;-78
2020/12/24 05:25:45;;;;;;;8.77;1.80;;;;;;;10.76;53.23;97283.41;8335386;28;20212;-76
2020/12/24 05:29:49;;;;;;;6.37;1.80;;;;;;;10.74;52.87;97296.44;8335608;28;20645;-77
2020/12/24 05:33:52;;;;;;;7.27;1.70;;;;;;;10.78;52.94;97288.50;8335166;28;20227;-77
2020/12/24 05:37:55;;;;;;;7.67;1.80;;;;;;;10.87;53.04;97277.59;8334920;28;20213;-77
2020/12/24 05:42:03;;;;;;;9.33;2.10;;;;;;;10.81;53.51;97280.53;8334196;28;20227;-77
2020/12/24 05:46:04;;;;;;;5.93;1.90;;;;;;;10.92;54.05;97284.19;8334482;28;20699;-77
2020/12/24 05:50:21;;;;;;;7.80;1.90;;;;;;;10.84;53.60;97293.34;8334061;28;20200;-77
2020/12/24 05:54:25;;;;;;;10.13;2.20;;;;;;;10.81;53.50;97278.78;8334150;28;20232;-77
2020/12/24 05:58:27;;;;;;;6.40;1.97;;;;;;;10.93;54.20;97269.50;8334514;28;20541;-77
2020/12/24 06:02:30;;;;;;;5.00;1.60;;;;;;;10.93;55.00;97269.50;8333960;28;20200;-77
2020/12/24 06:06:45;;;;;;;5.90;1.50;;;;;;;10.87;55.49;97272.41;8334708;28;20278;-77
2020/12/24 06:11:00;;;;;;;3.57;1.20;;;;;;;10.86;56.06;97274.19;8334170;28;20531;-77
2020/12/24 06:15:04;;;;;;;4.03;1.20;;;;;;;10.91;56.02;97267.00;8334112;28;20220;-77
2020/12/24 06:19:06;;;;;;;4.27;1.00;;;;;;;10.89;56.27;97286.13;8333513;28;20640;-77
2020/12/24 06:23:08;;;;;;;5.33;1.40;;;;;;;10.60;59.13;97309.28;8332854;28;20652;-77
2020/12/24 06:27:16;;;;;;;6.13;1.10;;;;;;;10.47;61.05;97285.00;8329445;28;20204;-77
2020/12/24 06:31:18;;;;;;;4.40;1.40;;;;;;;10.50;61.85;97282.25;8332658;28;20200;-77
2020/12/24 06:35:36;;;;;;;2.93;0.90;;;;;;;10.08;61.22;97265.50;8331617;28;20235;-77
2020/12/24 06:39:39;;;;;;;3.57;0.90;;;;;;;9.90;62.05;97260.41;8332672;28;20204;-77
2020/12/24 06:43:41;;;;;;;2.40;1.20;;;;;;;9.93;62.76;97268.00;8331876;28;20208;-77
2020/12/24 06:47:43;;;;;;;4.53;1.80;;;;;;;9.93;62.89;97247.28;8332466;28;20208;-77
2020/12/24 06:51:49;;;;;;;4.03;1.00;;;;;;;10.12;61.72;97248.91;8331889;28;20201;-77
2020/12/24 06:56:17;;;;;;;4.20;1.40;;;;;;;10.25;61.55;97233.56;8332200;28;20568;-77
2020/12/24 07:00:21;;;;;;;3.87;1.30;;;;;;;10.20;62.24;97244.16;8332079;28;20217;-77
2020/12/24 07:04:35;;;;;;;3.03;1.10;;;;;;;10.26;61.92;97249.00;8333349;28;20204;-78
2020/12/24 07:08:47;;;;;;;1.93;0.97;;;;;;;10.23;62.08;97240.56;8334279;28;20512;-77
2020/12/24 07:12:53;;;;;;;3.40;1.10;;;;;;;10.27;61.79;97227.38;8332249;28;20239;-77
2020/12/24 07:16:56;;;;;;;3.53;0.97;;;;;;;10.25;62.12;97225.78;8333928;28;20622;-77
2020/12/24 07:21:00;;;;;;;3.13;0.90;;;;;;;10.10;62.63;97215.34;8331834;28;20201;-77
2020/12/24 07:25:03;;;;;;;2.43;1.07;;;;;;;10.04;62.00;97213.09;8332240;28;20208;-78
2020/12/24 07:29:05;;;;;;;2.20;1.00;;;;;;;10.27;62.25;97211.03;8331620;28;20196;-77
2020/12/24 07:33:08;;;;;;;3.03;0.90;;;;;;;10.18;61.88;97212.34;8331731;28;20246;-77
2020/12/24 07:37:09;;;;;;;3.20;0.70;;;;;;;10.19;61.53;97224.38;8332277;28;20223;-77
2020/12/24 07:41:14;;;;;;;2.10;1.00;;;;;;;10.26;60.99;97214.50;8331998;28;20193;-77
2020/12/24 07:45:23;;;;;;;2.53;0.80;;;;;;;10.32;61.21;97207.28;8332292;28;20216;-78
2020/12/24 07:49:26;;;;;;;2.17;1.10;;;;;;;10.25;61.12;97211.09;8337663;28;20200;-77
2020/12/24 07:53:29;;;;;;;2.30;1.30;;;;;;;10.32;61.56;97209.88;8337371;28;20197;-78
2020/12/24 07:57:31;;;;;;;1.70;1.10;;;;;;;10.33;61.51;97201.19;8336638;28;20247;-78
2020/12/24 08:01:33;;;;;;;3.90;1.23;;;;;;;10.24;61.82;97193.88;8340403;28;20227;-79
2020/12/24 08:05:35;;;;;;;1.87;0.90;;;;;;;10.36;62.73;97190.66;8342820;28;20220;-77
2020/12/24 08:09:37;;;;;;;1.57;0.80;;;;;;;10.28;62.56;97181.63;8342991;28;20235;-79
2020/12/24 08:13:38;;;;;;;5.17;1.10;;;;;;;10.31;62.38;97195.25;8348933;28;20247;-79
2020/12/24 08:17:50;;;;;;;2.60;1.03;;;;;;;10.15;63.03;97186.66;8350579;28;20226;-80
2020/12/24 08:21:58;;;;;;;4.90;2.10;;;;;;;10.32;62.43;97186.59;8339650;28;20196;-78
2020/12/24 08:25:59;;;;;;;4.50;1.43;;;;;;;10.34;62.21;97184.75;8338028;28;20208;-79
2020/12/24 08:30:02;;;;;;;2.90;1.57;;;;;;;10.46;62.04;97197.91;8340435;28;20251;-78
2020/12/24 08:34:07;;;;;;;3.97;1.50;;;;;;;10.14;62.64;97198.75;8343717;28;20228;-78
2020/12/24 08:38:13;;;;;;;4.80;1.30;;;;;;;10.38;61.96;97188.00;8346945;28;20251;-79
2020/12/24 08:42:18;;;;;;;2.80;1.90;;;;;;;10.47;62.61;97186.63;8342925;28;20203;-78
2020/12/24 08:46:20;;;;;;;4.60;2.00;;;;;;;10.43;61.97;97179.97;8342671;28;20665;-78
2020/12/24 08:50:29;;;;;;;4.97;2.33;;;;;;;10.49;62.15;97179.59;8349812;28;20201;-79
2020/12/24 08:54:32;;;;;;;4.77;1.60;;;;;;;10.29;62.87;97170.38;8348646;28;20247;-79
2020/12/24 08:58:33;;;;;;;2.30;1.40;;;;;;;10.27;63.08;97174.78;8349287;28;20204;-79
2020/12/24 09:02:36;;;;;;;3.13;1.47;;;;;;;10.34;62.90;97173.56;8350431;28;20580;-79
2020/12/24 09:06:38;;;;;;;5.70;1.50;;;;;;;10.40;63.48;97169.81;8350261;28;20208;-79
2020/12/24 09:10:40;;;;;;;4.07;1.50;;;;;;;10.23;63.75;97168.94;8349666;28;20200;-79
2020/12/24 09:14:42;;;;;;;3.97;1.67;;;;;;;10.31;63.40;97173.72;8324307;28;20692;-78
2020/12/24 09:18:44;;;;;;;18.10;2.87;;;;;;;11.14;78.34;97181.94;8309528;28;20205;-78
2020/12/24 09:22:49;;;;;;;3.50;1.57;;;;;;;10.88;66.33;97175.69;8334385;28;20224;-79
2020/12/24 09:26:53;;;;;;;5.20;1.40;;;;;;;11.08;64.69;97170.16;8341447;28;20204;-78
2020/12/24 09:30:57;;;;;;;3.70;1.63;;;;;;;10.90;63.07;97166.88;8350113;28;20208;-79
2020/12/24 09:34:59;;;;;;;3.13;1.50;;;;;;;10.54;63.37;97175.03;8352893;28;20231;-80
2020/12/24 09:39:01;;;;;;;2.30;1.30;;;;;;;10.40;63.99;97168.03;8354388;28;20204;-79
2020/12/24 09:43:04;;;;;;;3.87;1.17;;;;;;;10.27;64.03;97172.19;8353597;28;20196;-80
2020/12/24 09:47:07;;;;;;;4.57;1.60;;;;;;;10.39;63.95;97174.13;8344221;28;20620;-79
2020/12/24 09:51:08;;;;;;;2.77;1.30;;;;;;;10.44;64.52;97171.28;8346140;28;20200;-79
2020/12/24 09:55:11;;;;;;;4.37;1.60;;;;;;;10.39;64.26;97173.28;8351641;28;20224;-79
2020/12/24 09:59:14;;;;;;;5.17;3.50;;;;;;;10.41;64.19;97166.28;8359034;28;20196;-80
2020/12/24 10:03:15;;;;;;;4.67;1.57;;;;;;;10.37;63.64;97158.69;8362383;28;20204;-78
2020/12/24 10:07:17;;;;;;;3.53;1.37;;;;;;;10.29;63.59;97160.84;8343206;28;20208;-79
2020/12/24 10:11:20;;;;;;;3.37;1.50;;;;;;;10.21;63.30;97151.84;8345873;28;20251;-79
2020/12/24 10:15:23;;;;;;;2.50;1.47;;;;;;;10.22;63.80;97145.75;8345040;28;20227;-79
2020/12/24 10:19:24;;;;;;;5.37;1.73;;;;;;;10.24;63.24;97138.72;8344106;28;20216;-80
2020/12/24 10:23:26;;;;;;;5.37;2.60;;;;;;;10.26;63.67;97137.75;8344825;28;20200;-79
2020/12/24 10:27:28;;;;;;;6.17;2.30;;;;;;;10.24;63.23;97138.72;8342060;28;20204;-78
2020/12/24 10:31:31;;;;;;;3.87;1.40;;;;;;;10.13;63.04;97131.59;8340475;28;20246;-79
2020/12/24 10:35:34;;;;;;;7.17;1.93;;;;;;;10.23;63.41;97130.13;8341055;28;20236;-81
2020/12/24 10:39:36;;;;;;;3.67;1.40;;;;;;;10.15;62.45;97134.91;8337826;28;20219;-81
2020/12/24 10:43:38;;;;;;;3.20;1.80;;;;;;;10.17;63.09;97133.91;8337208;28;20210;-81
2020/12/24 10:47:40;;;;;;;3.50;1.20;;;;;;;10.10;62.41;97124.81;8341287;28;20715;-80
2020/12/24 10:51:44;;;;;;;5.07;1.77;;;;;;;10.26;63.26;97126.53;8337516;28;20208;-80
2020/12/24 10:55:45;;;;;;;5.53;1.77;;;;;;;10.11;62.71;97128.22;8338248;28;20354;-79
2020/12/24 10:59:47;;;;;;;6.37;3.50;;;;;;;10.06;62.87;97122.47;8338545;28;20204;-82
2020/12/24 11:03:50;;;;;;;23.63;5.63;;;;;;;10.89;75.12;97116.00;8339058;28;20216;-80
2020/12/24 11:07:53;;;;;;;6.60;2.90;;;;;;;10.87;65.09;97102.31;8338677;28;20201;-80
2020/12/24 11:11:54;;;;;;;12.70;3.37;;;;;;;11.19;65.20;97112.50;8338438;28;20668;-81
2020/12/24 11:15:57;;;;;;;6.87;2.30;;;;;;;10.67;61.23;97116.44;8325483;28;20555;-84
2020/12/24 11:20:00;;;;;;;4.67;1.40;;;;;;;10.45;61.92;97116.84;8341246;28;20200;-84
2020/12/24 11:24:05;;;;;;;3.40;2.00;;;;;;;10.36;62.20;97110.44;8344641;28;20208;-85
2020/12/24 11:28:08;;;;;;;4.60;2.60;;;;;;;10.19;62.37;97120.88;8346360;28;20279;-84
2020/12/24 11:32:10;;;;;;;8.20;5.00;;;;;;;10.12;63.23;97119.56;8347827;28;20202;-85
2020/12/24 11:36:15;;;;;;;5.53;3.30;;;;;;;9.97;63.06;97108.28;8350500;28;20227;-84
2020/12/24 11:40:17;;;;;;;5.13;3.00;;;;;;;10.16;63.10;97123.63;8339922;28;20185;-83
2020/12/24 11:44:19;;;;;;;6.07;2.60;;;;;;;9.85;63.82;97129.69;8337003;28;20228;-85
2020/12/24 11:48:22;;;;;;;4.60;2.93;;;;;;;9.88;63.89;97122.59;8336616;28;20220;-82
2020/12/24 11:52:25;;;;;;;2.00;1.20;;;;;;;9.82;63.74;97112.56;8336798;28;20565;-84
2020/12/24 11:56:26;;;;;;;2.00;1.57;;;;;;;9.83;63.12;97119.41;8338077;28;20679;-82
2020/12/24 12:00:28;;;;;;;2.87;1.13;;;;;;;9.82;63.18;97114.31;8337971;28;20209;-84
2020/12/24 12:04:30;;;;;;;2.03;0.93;;;;;;;9.76;62.84;97107.72;8342149;28;20247;-84
2020/12/24 12:08:33;;;;;;;3.00;1.00;;;;;;;9.81;62.61;97110.09;8338759;28;20217;-84
2020/12/24 12:12:35;;;;;;;2.17;1.27;;;;;;;9.75;62.99;97109.50;8338520;28;20251;-83
2020/12/24 12:16:37;;;;;;;1.73;0.60;;;;;;;9.91;62.55;97104.31;8338695;28;20235;-83
2020/12/24 12:20:40;;;;;;;2.63;0.97;;;;;;;9.86;63.28;97110.63;8338064;28;20204;-82
2020/12/24 12:24:43;;;;;;;3.17;1.00;;;;;;;9.59;63.72;97106.06;8341267;28;20534;-83
2020/12/24 12:28:46;;;;;;;2.63;0.97;;;;;;;9.53;64.01;97112.38;8341164;28;20584;-83
2020/12/24 12:32:48;;;;;;;2.27;1.40;;;;;;;9.67;64.27;97101.31;8342240;28;20235;-83
2020/12/24 12:36:51;;;;;;;2.10;1.30;;;;;;;9.55;64.13;97099.41;8349803;28;20635;-84
2020/12/24 12:40:54;;;;;;;2.17;1.57;;;;;;;9.66;64.13;97101.41;8352426;28;20208;-83
2020/12/24 12:44:59;;;;;;;3.37;2.37;;;;;;;9.57;64.32;97100.13;8350913;28;20660;-83
2020/12/24 12:49:02;;;;;;;2.33;1.60;;;;;;;9.70;64.20;97092.56;8346941;28;20215;-82
2020/12/24 12:53:03;;;;;;;1.50;0.87;;;;;;;9.62;64.27;97102.50;8346270;28;20216;-83
2020/12/24 12:57:07;;;;;;;1.57;0.90;;;;;;;9.64;64.05;97098.91;8348613;28;20223;-84
2020/12/24 13:01:09;;;;;;;2.00;0.90;;;;;;;9.60;64.87;97105.16;8346766;28;20303;-85
2020/12/24 13:05:11;;;;;;;2.10;1.40;;;;;;;9.63;65.09;97098.97;8350961;28;20207;-85
2020/12/24 13:09:13;;;;;;;3.70;1.33;;;;;;;9.63;64.56;97101.56;8353637;28;20215;-85
2020/12/24 13:13:16;;;;;;;1.60;1.07;;;;;;;9.83;65.14;97106.47;8327558;28;20232;-84
2020/12/24 13:17:18;;;;;;;1.93;1.00;;;;;;;9.84;65.25;97105.56;8342490;28;20220;-82
2020/12/24 13:21:20;;;;;;;1.43;0.87;;;;;;;9.80;65.41;97111.81;8342418;28;20235;-82
2020/12/24 13:25:23;;;;;;;1.60;1.00;;;;;;;9.81;65.41;97105.75;8343616;28;20204;-82
2020/12/24 13:29:31;;;;;;;2.03;1.10;;;;;;;9.84;64.92;97120.25;8344072;28;20215;-83
2020/12/24 13:33:33;;;;;;;1.77;0.80;;;;;;;9.84;64.97;97120.25;8342282;28;20231;-82
2020/12/24 13:37:35;;;;;;;2.03;1.27;;;;;;;10.03;64.29;97120.88;8343155;28;20274;-82
2020/12/24 13:41:37;;;;;;;1.67;1.33;;;;;;;10.07;64.77;97117.22;8342670;28;20205;-84
2020/12/24 13:45:40;;;;;;;1.80;1.00;;;;;;;9.82;65.10;97125.50;8342637;28;20204;-85
2020/12/24 13:49:41;;;;;;;1.73;0.90;;;;;;;10.04;64.87;97122.56;8342560;28;20204;-85
2020/12/24 13:53:44;;;;;;;1.03;0.80;;;;;;;10.12;65.53;97135.06;8342110;28;20675;-85
2020/12/24 13:57:46;;;;;;;1.80;1.00;;;;;;;10.16;64.46;97124.44;8343532;28;20224;-85
2020/12/24 14:01:53;;;;;;;1.50;1.00;;;;;;;10.16;65.13;97132.22;8326899;28;20208;-85
2020/12/24 14:05:55;;;;;;;2.80;1.00;;;;;;;9.78;67.22;97145.50;8345414;28;20212;-84
2020/12/24 14:09:57;;;;;;;1.20;0.50;;;;;;;9.70;66.24;97136.50;8344639;28;20200;-85
2020/12/24 14:14:04;;;;;;;1.30;0.50;;;;;;;9.69;66.58;97153.78;8343789;28;20235;-84
2020/12/24 14:18:06;;;;;;;3.60;0.40;;;;;;;9.67;65.64;97154.75;8343997;28;20239;-84
2020/12/24 14:22:09;;;;;;;0.70;0.60;;;;;;;9.62;66.21;97156.78;8350238;28;20208;-83
2020/12/24 14:26:17;;;;;;;1.97;0.70;;;;;;;9.70;66.36;97163.19;8364743;28;20200;-83
2020/12/24 14:30:19;;;;;;;1.80;0.60;;;;;;;9.48;65.92;97170.41;8359101;28;20199;-84
2020/12/24 14:34:23;;;;;;;0.60;0.47;;;;;;;9.26;66.57;97170.72;8348878;28;20207;-84
2020/12/24 14:38:25;;;;;;;0.90;0.50;;;;;;;9.27;65.80;97180.97;8346358;28;20228;-84
2020/12/24 14:42:27;;;;;;;1.00;0.70;;;;;;;9.36;65.49;97172.72;8347818;28;20212;-84
2020/12/24 14:46:29;;;;;;;1.60;0.70;;;;;;;9.19;65.62;97172.75;8346891;28;20219;-84
2020/12/24 14:50:32;;;;;;;1.10;1.00;;;;;;;9.35;65.21;97183.16;8345477;28;20220;-85
2020/12/24 14:54:34;;;;;;;1.03;0.83;;;;;;;9.36;65.77;97177.88;8345671;28;20201;-84
2020/12/24 14:58:36;;;;;;;0.77;0.77;;;;;;;9.07;66.78;97186.31;8347085;28;20207;-84
2020/12/24 15:02:39;;;;;;;0.87;0.80;;;;;;;9.22;66.20;97184.72;8348961;28;20678;-84
2020/12/24 15:06:41;;;;;;;0.90;0.90;;;;;;;9.38;65.29;97175.22;8350560;28;20204;-84
2020/12/24 15:10:44;;;;;;;1.80;1.30;;;;;;;9.33;64.88;97179.81;8358405;28;20660;-84
2020/12/24 15:14:46;;;;;;;3.07;1.80;;;;;;;9.42;64.66;97192.25;8355533;28;20253;-83
2020/12/24 15:18:48;;;;;;;2.83;2.00;;;;;;;9.44;64.97;97189.59;8341036;28;20200;-83
2020/12/24 15:22:51;;;;;;;2.07;1.87;;;;;;;9.55;65.15;97187.28;8341314;28;20552;-83
2020/12/24 15:26:53;;;;;;;2.53;2.03;;;;;;;9.62;64.95;97192.97;8340901;28;20246;-83
2020/12/24 15:30:55;;;;;;;2.53;1.20;;;;;;;9.49;65.48;97178.09;8340134;28;20209;-83
2020/12/24 15:34:57;;;;;;;1.30;1.20;;;;;;;9.31;65.90;97181.63;8342916;28;20235;-84
2020/12/24 15:39:00;;;;;;;1.90;1.50;;;;;;;9.38;65.77;97181.22;8342833;28;20661;-83
2020/12/24 15:43:03;;;;;;;1.50;1.23;;;;;;;9.49;65.66;97185.03;8341807;28;20208;-81
2020/12/24 15:47:05;;;;;;;3.87;3.07;;;;;;;9.47;65.66;97187.69;8338685;28;20664;-82
2020/12/24 15:51:07;;;;;;;2.70;2.50;;;;;;;9.57;65.70;97186.25;8339714;28;20205;-81
2020/12/24 15:55:10;;;;;;;2.17;2.00;;;;;;;9.52;65.22;97180.53;8337737;28;20227;-81
2020/12/24 15:59:12;;;;;;;2.23;2.03;;;;;;;9.55;65.15;97188.09;8338533;28;20196;-81
2020/12/24 16:03:14;;;;;;;3.00;2.63;;;;;;;9.50;65.01;97184.09;8340063;28;20196;-79
2020/12/24 16:07:16;;;;;;;1.57;1.30;;;;;;;9.45;65.18;97180.94;8346591;28;20212;-80
2020/12/24 16:11:18;;;;;;;1.60;1.50;;;;;;;9.33;65.42;97170.31;8348215;28;20227;-80
2020/12/24 16:15:20;;;;;;;2.30;2.10;;;;;;;9.69;63.80;97174.47;8345471;28;20446;-80
2020/12/24 16:19:22;;;;;;;1.40;1.20;;;;;;;9.42;64.64;97178.50;8347320;28;20193;-80
2020/12/24 16:23:23;;;;;;;2.17;1.97;;;;;;;9.39;64.68;97177.75;8347487;28;20573;-80
2020/12/24 16:27:26;;;;;;;1.60;1.40;;;;;;;9.41;64.63;97177.66;8349511;28;20255;-80
2020/12/24 16:31:34;;;;;;;2.90;1.20;;;;;;;9.39;64.43;97177.75;8348771;28;20230;-80
2020/12/24 16:35:36;;;;;;;4.00;3.60;;;;;;;9.43;64.55;97188.75;8337624;28;20224;-80
2020/12/24 16:39:37;;;;;;;2.30;2.10;;;;;;;9.39;65.04;97195.81;8344382;28;20208;-80
2020/12/24 16:43:40;;;;;;;1.23;1.13;;;;;;;9.35;64.22;97194.31;8350496;28;20212;-80
2020/12/24 16:47:42;;;;;;;3.33;3.03;;;;;;;9.39;64.27;97192.41;8350685;28;20228;-80
2020/12/24 16:51:45;;;;;;;3.80;3.40;;;;;;;9.35;63.98;97199.50;8350140;28;20196;-80
2020/12/24 16:55:46;;;;;;;3.47;3.07;;;;;;;9.36;64.38;97197.72;8350521;28;20224;-80
2020/12/24 16:59:49;;;;;;;2.50;2.17;;;;;;;9.24;64.18;97200.97;8352329;28;20216;-80
2020/12/24 17:03:50;;;;;;;1.77;1.60;;;;;;;9.31;63.93;97194.53;8351010;28;20219;-80
2020/12/24 17:07:52;;;;;;;2.47;2.20;;;;;;;9.22;64.46;97200.22;8348998;28;20204;-80
2020/12/24 17:11:58;;;;;;;12.97;7.37;;;;;;;9.24;63.88;97199.22;8344453;28;20232;-79
2020/12/24 17:16:01;;;;;;;14.50;8.20;;;;;;;9.29;64.15;97207.56;8346210;28;20234;-81
2020/12/24 17:20:03;;;;;;;3.87;2.50;;;;;;;9.16;64.50;97209.94;8347271;28;20201;-79
2020/12/24 17:24:05;;;;;;;3.67;3.23;;;;;;;9.20;64.57;97218.38;8344550;28;20208;-80
2020/12/24 17:28:07;;;;;;;3.23;2.93;;;;;;;9.16;64.92;97216.84;8343233;28;20200;-79
2020/12/24 17:32:10;;;;;;;4.57;3.87;;;;;;;9.15;64.94;97220.34;8342875;28;20208;-78
2020/12/24 17:36:12;;;;;;;4.37;3.03;;;;;;;9.29;64.71;97236.00;8344309;28;20224;-80
2020/12/24 17:40:14;;;;;;;3.00;2.70;;;;;;;9.25;64.43;97244.78;8343987;28;20239;-79
2020/12/24 17:44:15;;;;;;;4.50;4.10;;;;;;;9.29;64.61;97246.31;8344913;28;20211;-80
2020/12/24 17:48:18;;;;;;;3.97;3.40;;;;;;;9.22;64.54;97247.53;8346432;28;20200;-79
2020/12/24 17:52:20;;;;;;;2.60;2.40;;;;;;;9.22;65.00;97242.38;8346070;28;20204;-79
2020/12/24 17:56:25;;;;;;;4.20;2.43;;;;;;;9.30;65.06;97239.41;8345371;28;20906;-80
2020/12/24 18:00:26;;;;;;;3.73;3.30;;;;;;;9.24;64.84;97245.72;8347213;28;20200;-82
2020/12/24 18:04:29;;;;;;;3.97;2.60;;;;;;;9.36;64.30;97237.31;8345587;28;20216;-79
2020/12/24 18:08:31;;;;;;;3.43;3.13;;;;;;;9.26;64.76;97241.28;8343893;28;20211;-79
2020/12/24 18:12:33;;;;;;;3.33;2.57;;;;;;;9.33;64.67;97242.66;8344082;28;20236;-81
2020/12/24 18:16:35;;;;;;;3.60;2.70;;;;;;;9.34;64.74;97239.16;8344906;28;20232;-80
2020/12/24 18:20:37;;;;;;;5.23;4.73;;;;;;;9.32;64.59;97243.56;8345663;28;20204;-80
2020/12/24 18:24:39;;;;;;;3.93;3.10;;;;;;;9.11;65.50;97249.81;8344477;28;20201;-79
2020/12/24 18:28:41;;;;;;;2.53;1.90;;;;;;;9.13;65.45;97256.56;8344964;28;20207;-79
2020/12/24 18:32:44;;;;;;;1.70;1.60;;;;;;;9.10;65.51;97248.13;8346250;28;20204;-79
2020/12/24 18:36:46;;;;;;;3.47;2.77;;;;;;;8.97;65.93;97247.94;8346630;28;20718;-77
2020/12/24 18:40:48;;;;;;;2.03;1.40;;;;;;;9.08;65.70;97252.53;8337287;28;20204;-79
2020/12/24 18:44:50;;;;;;;1.90;1.20;;;;;;;8.79;66.19;97265.97;8341413;28;20204;-79
2020/12/24 18:48:52;;;;;;;1.20;1.10;;;;;;;8.88;65.58;97272.44;8345011;28;20585;-79
2020/12/24 18:52:55;;;;;;;4.47;2.80;;;;;;;8.68;66.54;97265.69;8340032;28;20200;-79
2020/12/24 18:56:57;;;;;;;113.33;39.53;;;;;;;10.57;89.30;97276.66;8347874;28;20227;-81
2020/12/24 19:00:59;;;;;;;19.43;6.90;;;;;;;11.20;68.70;97256.72;8349968;28;20200;-82
2020/12/24 19:05:01;;;;;;;1.03;0.93;;;;;;;10.31;61.53;97264.31;8344900;28;20215;-80
2020/12/24 19:09:03;;;;;;;1.00;0.90;;;;;;;9.41;61.89;97273.28;8342810;28;20208;-80